createdAt,value
2022-10-18T00:01:49.887Z,78.92
2022-10-18T00:04:33.309Z,81.17
2022-10-18T00:07:16.697Z,82.27
2022-10-18T00:10:00.147Z,81.63
2022-10-18T00:12:43.677Z,78.43
2022-10-18T00:15:27.571Z,79.02
2022-10-18T00:18:10.984Z,82.26
2022-10-18T00:21:06.857Z,80.99
2022-10-18T00:23:52.294Z,79.37
2022-10-18T00:26:35.736Z,79.29
2022-10-18T00:29:19.198Z,80.09
2022-10-18T00:32:02.583Z,79.34
2022-10-18T00:34:46.042Z,77.76
2022-10-18T00:37:29.744Z,80.50
2022-10-18T00:40:13.264Z,78.43
2022-10-18T00:42:56.636Z,77.54
2022-10-18T00:45:40.014Z,76.18
2022-10-18T00:48:24.197Z,75.93
2022-10-18T00:51:07.817Z,75.76
2022-10-18T00:53:51.896Z,75.50
2022-10-18T00:56:36.014Z,75.84
2022-10-18T00:59:20.930Z,75.46
2022-10-18T01:02:06.807Z,75.51
2022-10-18T01:04:50.328Z,76.32
2022-10-18T01:08:00.770Z,76.81
2022-10-18T01:11:32.016Z,75.81
2022-10-18T01:14:39.327Z,76.34
2022-10-18T01:17:46.682Z,76.99
2022-10-18T01:21:21.437Z,77.86
2022-10-18T01:24:28.934Z,78.11
2022-10-18T01:27:27.909Z,77.91
2022-10-18T01:30:32.827Z,78.62
2022-10-18T01:33:23.211Z,79.04
2022-10-18T01:36:32.565Z,79.10
2022-10-18T01:39:31.416Z,82.01
2022-10-18T01:42:20.703Z,85.57
2022-10-18T01:45:08.007Z,82.53
2022-10-18T01:47:54.360Z,84.17
2022-10-18T01:50:37.752Z,81.80
2022-10-18T01:53:32.586Z,80.24
2022-10-18T01:56:26.939Z,84.75
2022-10-18T01:59:50.180Z,86.79
2022-10-18T02:02:57.089Z,88.66
2022-10-18T02:05:58.662Z,88.11
2022-10-18T02:09:00.750Z,87.49
2022-10-18T02:11:51.323Z,86.25
2022-10-18T02:14:36.716Z,87.12
2022-10-18T02:17:25.407Z,89.76
2022-10-18T02:20:11.560Z,89.27
2022-10-18T02:22:58.987Z,87.41
2022-10-18T02:25:42.932Z,89.72
2022-10-18T02:28:27.094Z,88.87
2022-10-18T02:31:28.599Z,89.31
2022-10-18T02:34:23.981Z,87.91
2022-10-18T02:37:10.857Z,86.92
2022-10-18T02:39:54.260Z,85.45
2022-10-18T02:42:49.862Z,86.75
2022-10-18T02:45:33.699Z,86.93
2022-10-18T02:48:17.074Z,88.38
2022-10-18T02:51:00.893Z,88.69
2022-10-18T02:53:44.250Z,87.96
2022-10-18T02:56:27.838Z,88.75
2022-10-18T02:59:11.955Z,88.48
2022-10-18T03:01:55.360Z,88.96
2022-10-18T03:04:38.725Z,91.30
2022-10-18T03:07:22.219Z,89.94
2022-10-18T03:10:06.395Z,89.98
2022-10-18T03:12:49.934Z,88.08
2022-10-18T03:15:33.292Z,89.39
2022-10-18T03:18:16.667Z,90.63
2022-10-18T03:21:05.609Z,90.33
2022-10-18T03:23:48.973Z,91.81
2022-10-18T03:26:32.769Z,92.15
2022-10-18T03:29:16.190Z,93.55
2022-10-18T03:31:59.576Z,92.93
2022-10-18T03:34:42.973Z,96.12
2022-10-18T03:37:26.411Z,96.18
2022-10-18T03:40:10.078Z,95.65
2022-10-18T03:42:53.441Z,93.99
2022-10-18T03:45:36.817Z,95.25
2022-10-18T03:48:20.205Z,96.56
2022-10-18T03:51:03.654Z,94.69
2022-10-18T03:53:47.026Z,94.46
2022-10-18T03:56:30.433Z,91.02
2022-10-18T03:59:13.933Z,90.97
2022-10-18T04:01:57.346Z,90.36
2022-10-18T04:04:40.766Z,89.82
2022-10-18T04:07:24.234Z,88.85
2022-10-18T04:10:08.206Z,87.88
2022-10-18T04:12:51.662Z,86.28
2022-10-18T04:15:35.050Z,87.81
2022-10-18T04:18:18.403Z,90.68
2022-10-18T04:21:01.836Z,91.59
2022-10-18T04:23:48.847Z,89.91
2022-10-18T04:26:32.204Z,87.54
2022-10-18T04:29:15.567Z,87.81
2022-10-18T04:31:58.965Z,85.71
2022-10-18T04:37:26.617Z,83.59
2022-10-18T04:40:10.594Z,83.61
2022-10-18T04:42:53.955Z,82.24
2022-10-18T04:45:37.367Z,81.73
2022-10-18T04:48:20.820Z,83.16
2022-10-18T04:51:04.189Z,83.83
2022-10-18T04:53:47.661Z,84.19
2022-10-18T04:56:31.045Z,83.98
2022-10-18T04:59:14.439Z,85.26
2022-10-18T05:01:57.893Z,83.38
2022-10-18T05:04:41.322Z,86.63
2022-10-18T05:07:24.689Z,86.44
2022-10-18T05:10:08.688Z,88.46
2022-10-18T05:12:52.092Z,88.03
2022-10-18T05:15:35.483Z,88.66
2022-10-18T05:18:18.923Z,86.22
2022-10-18T05:21:02.299Z,85.67
2022-10-18T05:23:45.729Z,84.51
2022-10-18T05:26:29.154Z,83.26
2022-10-18T05:29:12.690Z,83.19
2022-10-18T05:31:56.153Z,86.66
2022-10-18T05:34:39.576Z,83.99
2022-10-18T05:37:27.556Z,82.67
2022-10-18T05:40:12.245Z,82.01
2022-10-18T05:42:55.611Z,84.60
2022-10-18T05:45:38.992Z,84.26
2022-10-18T05:48:22.526Z,84.12
2022-10-18T05:51:06.037Z,83.75
2022-10-18T05:53:49.416Z,83.76
2022-10-18T05:56:32.994Z,83.55
2022-10-18T05:59:16.370Z,85.21
2022-10-18T06:01:59.779Z,86.01
2022-10-18T06:04:43.179Z,84.06
2022-10-18T06:07:26.531Z,82.51
2022-10-18T06:10:10.194Z,82.90
2022-10-18T06:12:53.519Z,82.62
2022-10-18T06:15:36.968Z,83.47
2022-10-18T06:18:20.347Z,83.97
2022-10-18T06:21:04.493Z,83.21
2022-10-18T06:23:53.727Z,82.39
2022-10-18T06:26:37.084Z,82.21
2022-10-18T06:29:20.538Z,84.50
2022-10-18T06:32:05.803Z,85.09
2022-10-18T06:34:49.217Z,85.54
2022-10-18T06:37:32.950Z,84.05
2022-10-18T06:40:16.458Z,82.17
2022-10-18T06:43:19.604Z,83.24
2022-10-18T06:46:08.175Z,82.57
2022-10-18T06:48:51.726Z,83.40
2022-10-18T06:51:35.348Z,82.63
2022-10-18T06:54:19.200Z,82.13
2022-10-18T06:57:03.236Z,80.88
2022-10-18T06:59:47.206Z,81.51
2022-10-18T07:02:30.817Z,82.27
2022-10-18T07:05:14.453Z,83.25
2022-10-18T07:07:58.458Z,82.65
2022-10-18T07:10:41.928Z,83.77
2022-10-18T07:13:32.490Z,82.95
2022-10-18T07:16:19.412Z,81.74
2022-10-18T07:19:03.054Z,83.76
2022-10-18T07:21:46.429Z,81.79
2022-10-18T07:24:29.834Z,85.42
2022-10-18T07:27:13.400Z,88.00
2022-10-18T07:29:56.739Z,89.96
2022-10-18T07:32:40.110Z,89.78
2022-10-18T07:35:23.527Z,87.65
2022-10-18T07:38:06.905Z,88.98
2022-10-18T07:40:58.515Z,89.36
2022-10-18T07:43:45.857Z,89.40
2022-10-18T07:46:29.295Z,94.04
2022-10-18T07:49:12.675Z,92.47
2022-10-18T07:51:56.018Z,93.12
2022-10-18T07:54:39.424Z,92.87
2022-10-18T07:57:23.500Z,91.14
2022-10-18T08:00:09.147Z,93.46
2022-10-18T08:02:59.433Z,92.72
2022-10-18T08:05:43.097Z,90.17
2022-10-18T08:08:27.825Z,90.14
2022-10-18T08:11:24.415Z,94.57
2022-10-18T08:14:07.793Z,94.48
2022-10-18T08:16:51.229Z,91.77
2022-10-18T08:19:34.579Z,89.48
2022-10-18T08:22:18.108Z,90.61
2022-10-18T08:25:01.496Z,89.39
2022-10-18T08:27:45.105Z,88.02
2022-10-18T08:30:28.563Z,89.06
2022-10-18T08:33:12.221Z,87.23
2022-10-18T08:36:01.743Z,89.07
2022-10-18T08:38:45.230Z,88.18
2022-10-18T08:41:37.825Z,87.70
2022-10-18T08:44:30.604Z,88.69
2022-10-18T08:47:20.716Z,90.11
2022-10-18T08:50:16.282Z,89.92
2022-10-18T08:53:20.811Z,89.49
2022-10-18T08:56:21.568Z,87.97
2022-10-18T08:59:11.383Z,88.18
2022-10-18T09:02:40.292Z,87.86
2022-10-18T09:06:04.352Z,87.81
2022-10-18T09:09:31.891Z,87.56
2022-10-18T09:12:47.091Z,87.46
2022-10-18T09:15:49.529Z,88.00
2022-10-18T09:19:20.830Z,86.70
2022-10-18T09:22:18.179Z,86.20
2022-10-18T09:25:26.180Z,87.42
2022-10-18T09:28:44.616Z,86.96
2022-10-18T09:32:25.560Z,94.81
2022-10-18T09:35:47.853Z,93.63
2022-10-18T09:38:55.134Z,90.55
2022-10-18T09:42:00.282Z,92.17
2022-10-18T09:45:02.157Z,91.50
2022-10-18T09:48:08.671Z,90.57
2022-10-18T09:51:23.559Z,89.23
2022-10-18T09:54:30.535Z,87.31
2022-10-18T09:57:35.291Z,88.94
2022-10-18T10:00:28.094Z,88.38
2022-10-18T10:03:14.772Z,88.90
2022-10-18T10:06:14.849Z,87.61
2022-10-18T10:09:05.668Z,88.94
2022-10-18T10:11:51.960Z,92.07
2022-10-18T10:14:44.554Z,90.39
2022-10-18T10:17:33.462Z,90.03
2022-10-18T10:20:45.662Z,88.99
2022-10-18T10:23:51.166Z,90.95
2022-10-18T10:26:37.895Z,90.03
2022-10-18T10:29:46.145Z,87.47
2022-10-18T10:32:44.988Z,89.14
2022-10-18T10:38:35.629Z,86.98
2022-10-18T10:41:24.286Z,87.33
2022-10-18T10:44:21.478Z,87.27
2022-10-18T10:47:06.324Z,86.23
2022-10-18T10:49:49.809Z,86.08
2022-10-18T10:52:33.333Z,85.75
2022-10-18T10:55:35.438Z,86.74
2022-10-18T10:58:19.481Z,85.58
2022-10-18T11:01:21.537Z,85.91
2022-10-18T11:04:28.513Z,85.24
2022-10-18T11:07:36.478Z,85.38
2022-10-18T11:10:26.334Z,85.37
2022-10-18T11:13:50.044Z,87.13
2022-10-18T11:16:56.657Z,85.91
2022-10-18T11:20:22.967Z,85.60
2022-10-18T11:23:11.251Z,87.25
2022-10-18T11:26:10.738Z,87.84
2022-10-18T11:29:03.276Z,87.56
2022-10-18T11:32:10.957Z,88.27
2022-10-18T11:35:08.472Z,89.48
2022-10-18T11:38:08.058Z,88.06
2022-10-18T11:41:19.603Z,88.71
2022-10-18T11:44:28.680Z,90.41
2022-10-18T11:48:06.887Z,89.44
2022-10-18T11:52:06.705Z,88.91
2022-10-18T11:55:20.609Z,88.61
2022-10-18T11:58:34.963Z,92.84
2022-10-18T12:01:53.662Z,90.51
2022-10-18T12:04:58.505Z,89.71
2022-10-18T12:08:14.088Z,95.68
2022-10-18T12:11:06.905Z,94.04
2022-10-18T12:14:10.719Z,93.53
2022-10-18T12:17:38.986Z,92.63
2022-10-18T12:20:20.756Z,92.14
2022-10-18T12:23:12.602Z,91.77
2022-10-18T12:26:03.549Z,90.41
2022-10-18T12:29:07.502Z,94.41
2022-10-18T12:32:16.547Z,97.86
2022-10-18T12:35:18.509Z,95.24
2022-10-18T12:38:07.660Z,92.21
2022-10-18T12:40:54.670Z,93.59
2022-10-18T12:43:38.134Z,96.65
2022-10-18T12:46:21.799Z,95.09
2022-10-18T12:49:06.091Z,93.47
2022-10-18T12:52:25.458Z,93.44
2022-10-18T12:55:17.629Z,93.84
2022-10-18T12:58:05.867Z,92.67
2022-10-18T13:00:49.252Z,91.78
2022-10-18T13:03:51.416Z,91.83
2022-10-18T13:06:57.764Z,89.21
2022-10-18T13:10:03.890Z,89.88
2022-10-18T13:13:39.278Z,90.02
2022-10-18T13:16:23.293Z,92.55
2022-10-18T13:19:39.266Z,91.25
2022-10-18T13:23:09.494Z,93.59
2022-10-18T13:26:23.544Z,92.40
2022-10-18T13:29:47.551Z,92.88
2022-10-18T13:32:48.658Z,93.35
2022-10-18T13:35:56.402Z,93.05
2022-10-18T13:38:57.837Z,95.15
2022-10-18T13:41:47.483Z,94.64
2022-10-18T13:44:39.979Z,93.74
2022-10-18T13:47:38.050Z,93.69
2022-10-18T13:50:36.360Z,93.08
2022-10-18T13:53:22.598Z,94.70
2022-10-18T13:56:59.653Z,92.87
2022-10-18T14:00:38.178Z,93.97
2022-10-18T14:03:56.803Z,96.40
2022-10-18T14:06:48.414Z,95.44
2022-10-18T14:09:50.991Z,95.35
2022-10-18T14:12:44.204Z,93.81
2022-10-18T14:15:35.711Z,93.05
2022-10-18T14:18:33.043Z,95.87
2022-10-18T14:21:31.072Z,96.34
2022-10-18T14:24:22.475Z,95.02
2022-10-18T14:27:14.737Z,93.18
2022-10-18T14:30:30.744Z,93.35
2022-10-18T14:33:27.950Z,94.58
2022-10-18T14:36:20.365Z,95.17
2022-10-18T14:39:07.650Z,95.36
2022-10-18T14:41:57.424Z,96.09
2022-10-18T14:44:40.776Z,94.74
2022-10-18T14:47:27.359Z,93.95
2022-10-18T14:50:30.553Z,92.68
2022-10-18T14:53:21.064Z,92.42
2022-10-18T14:56:07.484Z,93.15
2022-10-18T14:58:52.532Z,91.41
2022-10-18T15:01:36.488Z,89.82
2022-10-18T15:04:24.969Z,89.46
2022-10-18T15:07:19.976Z,90.24
2022-10-18T15:10:06.663Z,91.25
2022-10-18T15:13:08.827Z,90.00
2022-10-18T15:15:55.445Z,91.65
2022-10-18T15:18:38.807Z,90.31
2022-10-18T15:21:24.738Z,89.23
2022-10-18T15:24:31.120Z,89.38
2022-10-18T15:27:35.395Z,86.96
2022-10-18T15:30:39.364Z,86.81
2022-10-18T15:33:25.937Z,88.69
2022-10-18T15:36:27.699Z,89.81
2022-10-18T15:39:31.203Z,88.50
2022-10-18T15:42:37.755Z,91.81
2022-10-18T15:45:23.979Z,89.90
2022-10-18T15:48:09.306Z,89.26
2022-10-18T15:51:06.574Z,87.89
2022-10-18T15:53:50.019Z,89.13
2022-10-18T15:56:36.684Z,89.95
2022-10-18T15:59:29.719Z,87.54
2022-10-18T16:02:14.838Z,88.47
2022-10-18T16:05:02.900Z,88.11
2022-10-18T16:07:52.251Z,87.74
2022-10-18T16:10:35.803Z,88.51
2022-10-18T16:13:19.731Z,87.61
2022-10-18T16:16:03.242Z,87.36
2022-10-18T16:18:47.058Z,88.10
2022-10-18T16:21:39.956Z,87.69
2022-10-18T16:24:23.884Z,87.84
2022-10-18T16:27:07.284Z,86.64
2022-10-18T16:29:50.705Z,87.07
2022-10-18T16:32:34.419Z,86.82
2022-10-18T16:35:17.927Z,85.95
2022-10-18T16:38:01.968Z,84.79
2022-10-18T16:40:45.354Z,84.74
2022-10-18T16:43:28.919Z,83.44
2022-10-18T16:46:22.089Z,83.41
2022-10-18T16:49:06.229Z,83.77
2022-10-18T16:51:54.225Z,83.80
2022-10-18T16:54:37.730Z,84.42
2022-10-18T16:57:21.131Z,83.56
2022-10-18T17:00:05.038Z,83.33
2022-10-18T17:02:49.988Z,83.08
2022-10-18T17:05:33.447Z,83.45
2022-10-18T17:08:28.290Z,80.79
2022-10-18T17:11:14.629Z,81.73
2022-10-18T17:13:58.208Z,82.92
2022-10-18T17:16:44.517Z,80.21
2022-10-18T17:19:30.433Z,79.48
2022-10-18T17:22:13.865Z,79.78
2022-10-18T17:24:57.276Z,79.85
2022-10-18T17:27:41.057Z,79.17
2022-10-18T17:30:24.495Z,79.49
2022-10-18T17:33:08.762Z,79.32
2022-10-18T17:35:52.305Z,78.97
2022-10-18T17:38:35.754Z,80.29
2022-10-18T17:41:19.277Z,82.35
2022-10-18T17:44:04.695Z,82.62
2022-10-18T17:46:48.212Z,81.31
2022-10-18T17:49:31.764Z,81.29
2022-10-18T17:52:15.179Z,80.60
2022-10-18T17:54:58.625Z,80.65
2022-10-18T17:57:43.760Z,79.85
2022-10-18T18:00:28.543Z,80.71
2022-10-18T18:03:12.311Z,80.26
2022-10-18T18:05:56.144Z,80.65
2022-10-18T18:08:39.703Z,81.02
2022-10-18T18:11:23.178Z,80.68
2022-10-18T18:14:09.133Z,80.27
2022-10-18T18:16:52.612Z,81.28
2022-10-18T18:19:36.519Z,82.01
2022-10-18T18:22:19.944Z,84.36
2022-10-18T18:25:04.532Z,81.76
2022-10-18T18:27:47.920Z,82.54
2022-10-18T18:30:31.299Z,82.84
2022-10-18T18:33:14.989Z,83.41
2022-10-18T18:35:58.946Z,83.31
2022-10-18T18:38:43.391Z,82.74
2022-10-18T18:41:28.432Z,82.54
2022-10-18T18:44:11.811Z,82.26
2022-10-18T18:46:55.564Z,83.51
2022-10-18T18:49:39.081Z,82.76
2022-10-18T18:52:22.616Z,81.80
2022-10-18T18:55:06.697Z,81.78
2022-10-18T18:57:50.087Z,80.91
2022-10-18T19:00:33.660Z,79.98
2022-10-18T19:03:17.127Z,79.47
2022-10-18T19:06:07.401Z,81.66
2022-10-18T19:09:00.521Z,79.73
2022-10-18T19:11:44.301Z,80.39
2022-10-18T19:14:29.364Z,81.51
2022-10-18T19:17:13.244Z,83.12
2022-10-18T19:19:58.858Z,84.46
2022-10-18T19:22:42.545Z,86.33
2022-10-18T19:25:27.076Z,85.38
2022-10-18T19:28:10.655Z,84.81
2022-10-18T19:30:56.118Z,86.50
2022-10-18T19:33:48.547Z,86.43
2022-10-18T19:36:41.835Z,85.94
2022-10-18T19:39:30.875Z,84.90
2022-10-18T19:42:18.587Z,85.55
2022-10-18T19:45:06.414Z,84.38
2022-10-18T19:47:50.042Z,84.20
2022-10-18T19:50:35.330Z,84.48
2022-10-18T19:53:18.988Z,83.70
2022-10-18T19:56:05.274Z,83.29
2022-10-18T19:58:49.438Z,83.29
2022-10-18T20:01:33.046Z,83.15
2022-10-18T20:04:17.516Z,82.49
2022-10-18T20:07:02.802Z,82.41
2022-10-18T20:09:48.032Z,83.36
2022-10-18T20:12:31.792Z,83.82
2022-10-18T20:15:15.809Z,85.45
2022-10-18T20:18:05.271Z,83.54
2022-10-18T20:20:49.820Z,83.03
2022-10-18T20:23:36.329Z,83.20
2022-10-18T20:26:20.970Z,84.25
2022-10-18T20:29:05.339Z,84.14
2022-10-18T20:31:48.796Z,84.66
2022-10-18T20:34:32.161Z,85.96
2022-10-18T20:37:15.540Z,84.30
2022-10-18T20:40:00.213Z,84.78
2022-10-18T20:42:43.750Z,84.03
2022-10-18T20:45:27.128Z,84.56
2022-10-18T20:48:10.500Z,84.14
2022-10-18T20:50:54.376Z,83.74
2022-10-18T20:53:38.707Z,82.96
2022-10-18T20:56:26.689Z,83.59
2022-10-18T20:59:11.559Z,82.01
2022-10-18T21:01:54.981Z,82.97
2022-10-18T21:04:41.413Z,82.61
2022-10-18T21:07:25.769Z,82.30
2022-10-18T21:10:09.433Z,84.07
2022-10-18T21:12:53.491Z,84.08
2022-10-18T21:15:36.893Z,83.83
2022-10-18T21:18:27.695Z,82.82
2022-10-18T21:21:17.779Z,84.43
2022-10-18T21:24:04.057Z,84.23
2022-10-18T21:26:51.052Z,83.10
2022-10-18T21:29:34.666Z,83.68
2022-10-18T21:32:18.216Z,83.44
2022-10-18T21:35:01.700Z,85.75
2022-10-18T21:37:45.088Z,85.21
2022-10-18T21:40:28.832Z,84.79
2022-10-18T21:43:12.190Z,85.67
2022-10-18T21:46:00.343Z,85.45
2022-10-18T21:48:51.707Z,86.98
2022-10-18T21:51:35.381Z,86.71
2022-10-18T21:54:18.941Z,86.05
2022-10-18T21:57:02.290Z,85.19
2022-10-18T21:59:45.812Z,85.73
2022-10-18T22:02:29.207Z,86.35
2022-10-18T22:05:12.760Z,85.23
2022-10-18T22:07:56.141Z,84.01
2022-10-18T22:10:39.550Z,83.26
2022-10-18T22:13:23.148Z,84.84
2022-10-18T22:16:08.738Z,84.22
2022-10-18T22:18:56.559Z,84.04
2022-10-18T22:21:40.340Z,84.51
2022-10-18T22:24:23.817Z,81.97
2022-10-18T22:27:07.328Z,83.11
2022-10-18T22:29:52.145Z,82.02
2022-10-18T22:32:35.708Z,83.58
2022-10-18T22:35:19.069Z,83.03
2022-10-18T22:38:02.436Z,83.12
2022-10-18T22:40:45.865Z,83.36
2022-10-18T22:43:30.000Z,81.59
2022-10-18T22:46:15.168Z,82.52
2022-10-18T22:48:58.641Z,81.82
2022-10-18T22:51:42.046Z,82.44
2022-10-18T22:54:25.447Z,81.95
2022-10-18T22:57:08.788Z,84.26
2022-10-18T22:59:52.283Z,84.38
2022-10-18T23:02:35.937Z,84.34
2022-10-18T23:05:19.572Z,86.24
2022-10-18T23:08:02.927Z,85.57
2022-10-18T23:10:46.394Z,85.01
2022-10-18T23:13:29.751Z,83.25
2022-10-18T23:16:13.888Z,84.11
2022-10-18T23:18:59.152Z,85.58
2022-10-18T23:21:42.604Z,86.08
2022-10-18T23:24:26.032Z,86.00
2022-10-18T23:27:09.399Z,85.98
2022-10-18T23:29:52.874Z,86.22
2022-10-18T23:32:38.281Z,85.84
2022-10-18T23:35:21.864Z,85.75
2022-10-18T23:38:05.204Z,85.72
2022-10-18T23:40:48.595Z,85.17
2022-10-18T23:43:32.690Z,86.06
2022-10-18T23:46:18.107Z,84.87
2022-10-18T23:49:01.693Z,84.67
2022-10-18T23:51:45.128Z,84.51
2022-10-18T23:54:28.553Z,85.31
2022-10-18T23:57:12.488Z,84.98
2022-10-18T23:59:55.860Z,84.95
